Time;durP1;ratioP1;P1;durP2;ratioP2;P2;SDS_P1;SDS_P2;PMS_P1;PMS_P2;Temp;Humidity;BMP_temperature;BMP_pressure;BME280_temperature;BME280_humidity;BME280_pressure;Samples;Min_cycle;Max_cycle;Signal;HPM_P1;HPM_P2
2021/12/14 00:01:12;;;;;;;45.45;16.73;;;;;;;4.70;100.00;99685.91;12755322;23;20084;-78
2021/12/14 00:06:18;;;;;;;40.47;16.23;;;;;;;4.72;100.00;99673.16;12748453;23;20282;-80
2021/12/14 00:16:41;;;;;;;43.38;16.08;;;;;;;4.65;100.00;99672.53;12734587;23;20440;-80
2021/12/14 00:21:51;;;;;;;39.50;15.98;;;;;;;4.67;100.00;99681.88;12748465;23;20088;-79
2021/12/14 00:27:02;;;;;;;37.08;14.73;;;;;;;4.73;100.00;99683.53;12754610;23;20021;-79
2021/12/14 00:32:16;;;;;;;39.88;15.82;;;;;;;4.67;100.00;99678.44;12742861;23;20025;-79
2021/12/14 00:37:21;;;;;;;36.20;16.00;;;;;;;4.64;100.00;99676.25;12741253;23;20013;-80
2021/12/14 00:42:23;;;;;;;37.38;16.35;;;;;;;4.56;100.00;99680.94;12745879;23;20028;-82
2021/12/14 00:47:27;;;;;;;38.85;15.57;;;;;;;4.53;100.00;99681.44;12709505;23;20025;-80
2021/12/14 00:52:30;;;;;;;37.00;15.55;;;;;;;4.63;100.00;99685.28;12733319;23;20077;-80
2021/12/14 00:57:36;;;;;;;42.65;15.73;;;;;;;4.54;100.00;99693.69;12742183;23;20112;-79
2021/12/14 01:02:38;;;;;;;36.65;15.48;;;;;;;4.60;100.00;99685.78;12707774;23;20025;-79
2021/12/14 01:07:42;;;;;;;37.00;16.75;;;;;;;4.52;100.00;99679.84;12741088;23;20036;-80
2021/12/14 01:12:56;;;;;;;35.40;14.83;;;;;;;4.58;100.00;99686.03;12741734;23;20060;-80
2021/12/14 01:18:17;;;;;;;33.22;15.27;;;;;;;4.62;100.00;99679.16;12741810;23;20017;-77
2021/12/14 01:23:29;;;;;;;32.85;15.15;;;;;;;4.59;100.00;99690.31;12724061;23;20016;-78
2021/12/14 01:28:31;;;;;;;39.05;18.40;;;;;;;4.55;100.00;99687.31;12743701;23;20014;-78
2021/12/14 01:33:38;;;;;;;44.83;17.85;;;;;;;4.54;100.00;99679.59;12743063;23;20024;-79
2021/12/14 01:39:08;;;;;;;;;;;;;;;;;;;;;
2021/12/14 01:44:01;;;;;;;34.10;15.32;;;;;;;4.59;100.00;99684.19;12713804;23;20025;-79
2021/12/14 01:49:13;;;;;;;45.03;17.40;;;;;;;4.65;100.00;99688.47;12705005;23;20040;-80
2021/12/14 01:54:30;;;;;;;37.10;16.35;;;;;;;4.65;100.00;99683.16;12745945;23;20025;-77
2021/12/14 01:59:36;;;;;;;36.67;15.65;;;;;;;4.63;100.00;99690.59;12732519;23;20017;-78
2021/12/14 02:04:44;;;;;;;33.70;15.43;;;;;;;4.54;100.00;99683.06;12731424;23;20059;-77
2021/12/14 02:09:51;;;;;;;22.85;10.77;;;;;;;4.59;100.00;99681.53;12731509;23;20013;-78
2021/12/14 02:14:53;;;;;;;21.00;9.88;;;;;;;4.48;100.00;99673.44;12731420;23;20022;-78
2021/12/14 02:19:53;;;;;;;16.73;9.40;;;;;;;4.38;100.00;99672.50;12732918;23;20057;-80
2021/12/14 02:25:02;;;;;;;16.65;8.60;;;;;;;4.38;100.00;99675.94;12710680;23;20092;-80
2021/12/14 02:30:27;;;;;;;19.88;8.82;;;;;;;4.40;100.00;99670.41;12738541;23;20433;-81
2021/12/14 02:35:28;;;;;;;18.20;9.07;;;;;;;4.36;100.00;99666.63;12729314;23;20098;-81
2021/12/14 02:41:01;;;;;;;17.83;9.07;;;;;;;4.35;100.00;99679.09;12752159;23;20036;-80
2021/12/14 02:46:25;;;;;;;17.48;8.50;;;;;;;4.44;100.00;99669.66;12753366;23;20025;-79
2021/12/14 02:51:51;;;;;;;16.33;8.32;;;;;;;4.21;100.00;99664.59;12731124;23;20025;-81
2021/12/14 02:57:04;;;;;;;12.00;6.03;;;;;;;4.10;100.00;99660.97;12689088;23;20044;-82
2021/12/14 03:02:35;;;;;;;9.38;5.32;;;;;;;4.00;100.00;99647.56;12731174;23;20025;-81
2021/12/14 03:07:43;;;;;;;8.85;4.82;;;;;;;3.97;100.00;99632.94;12721189;23;20013;-80
2021/12/14 03:12:54;;;;;;;10.07;6.35;;;;;;;3.91;100.00;99641.06;12773268;23;20093;-80
2021/12/14 03:18:05;;;;;;;13.35;7.07;;;;;;;3.96;100.00;99646.47;12756955;23;20022;-79
2021/12/14 03:23:14;;;;;;;14.80;7.72;;;;;;;3.91;100.00;99649.84;12739540;23;20044;-80
2021/12/14 03:28:33;;;;;;;17.67;8.48;;;;;;;3.98;100.00;99668.28;12740574;23;20041;-80
2021/12/14 03:33:42;;;;;;;14.30;7.65;;;;;;;4.02;100.00;99660.59;12738974;23;20569;-80
2021/12/14 03:39:11;;;;;;;11.90;7.05;;;;;;;3.92;100.00;99666.59;12738479;23;20049;-81
2021/12/14 03:44:28;;;;;;;14.18;7.97;;;;;;;3.84;100.00;99659.88;12754953;23;20037;-79
2021/12/14 03:49:37;;;;;;;13.52;7.55;;;;;;;3.78;100.00;99660.03;12736844;23;20031;-80
2021/12/14 03:54:44;;;;;;;14.77;7.70;;;;;;;3.68;100.00;99658.03;12755519;23;20041;-80
2021/12/14 03:59:45;;;;;;;16.50;8.23;;;;;;;3.62;100.00;99653.69;12740317;23;20052;-79
2021/12/14 04:04:53;;;;;;;15.43;8.18;;;;;;;3.76;100.00;99667.44;12714277;23;20045;-79
2021/12/14 04:09:54;;;;;;;19.58;7.95;;;;;;;3.78;100.00;99668.00;12751837;23;20029;-80
2021/12/14 04:14:57;;;;;;;14.07;7.07;;;;;;;3.80;100.00;99663.25;12739008;23;20029;-79
2021/12/14 04:20:00;;;;;;;9.18;5.25;;;;;;;3.80;100.00;99664.03;12742761;23;20794;-79
2021/12/14 04:25:19;;;;;;;9.98;5.18;;;;;;;3.64;100.00;99652.38;12738106;23;20032;-81
2021/12/14 04:30:35;;;;;;;12.10;5.53;;;;;;;3.63;100.00;99642.03;12741847;23;20483;-79
2021/12/14 04:35:43;;;;;;;10.90;5.30;;;;;;;3.57;100.00;99640.34;12713095;23;20029;-78
2021/12/14 04:57:09;;;;;;;;;;;;;;;;;;;;;
2021/12/14 05:02:47;;;;;;;15.25;6.97;;;;;;;3.29;100.00;99612.03;12737786;23;20025;-81
2021/12/14 05:13:21;;;;;;;18.23;7.68;;;;;;;3.23;100.00;99603.22;12720133;23;20040;-81
2021/12/14 05:18:23;;;;;;;18.02;7.50;;;;;;;3.25;100.00;99592.38;12700836;23;20037;-81
2021/12/14 05:23:33;;;;;;;20.52;8.25;;;;;;;3.23;100.00;99594.47;12759349;23;20133;-81
2021/12/14 05:28:56;;;;;;;19.05;8.52;;;;;;;3.25;100.00;99595.81;12782628;23;20085;-81
2021/12/14 05:33:59;;;;;;;23.05;9.48;;;;;;;3.23;100.00;99597.13;12763349;23;20016;-79
2021/12/14 05:39:45;;;;;;;26.60;10.05;;;;;;;3.30;100.00;99605.72;12742301;23;20009;-79
2021/12/14 05:45:12;;;;;;;29.02;10.18;;;;;;;3.31;100.00;99604.66;12787194;23;20013;-79
2021/12/14 05:50:21;;;;;;;21.73;10.00;;;;;;;3.38;100.00;99600.81;12751415;23;20025;-80
2021/12/14 05:55:33;;;;;;;19.80;9.07;;;;;;;3.39;100.00;99591.81;12687247;23;20017;-79
2021/12/14 06:00:43;;;;;;;20.95;8.57;;;;;;;3.35;100.00;99585.34;12745602;23;20029;-81
2021/12/14 06:05:54;;;;;;;15.15;7.35;;;;;;;3.39;100.00;99591.00;12752271;23;20321;-82
2021/12/14 06:11:06;;;;;;;18.67;7.78;;;;;;;3.48;100.00;99608.13;12779807;23;20033;-81
2021/12/14 06:16:43;;;;;;;15.20;7.20;;;;;;;3.49;100.00;99624.84;12763933;23;20139;-80
2021/12/14 06:21:57;;;;;;;14.52;7.40;;;;;;;3.52;100.00;99614.53;12739921;23;20021;-80
2021/12/14 06:27:42;;;;;;;15.93;7.15;;;;;;;3.33;100.00;99599.91;12710096;23;20032;-83
2021/12/14 06:33:15;;;;;;;13.77;6.47;;;;;;;3.37;100.00;99596.53;12745935;23;20025;-79
2021/12/14 06:39:04;;;;;;;12.45;5.63;;;;;;;3.20;100.00;99581.66;12741394;23;20056;-80
2021/12/14 06:44:16;;;;;;;9.80;4.25;;;;;;;3.07;100.00;99567.69;12756711;23;20029;-82
2021/12/14 06:49:35;;;;;;;10.85;4.53;;;;;;;3.07;100.00;99575.66;12742329;23;20022;-78
2021/12/14 06:54:42;;;;;;;18.75;5.22;;;;;;;3.00;100.00;99580.31;12742984;23;20093;-81
2021/12/14 07:00:31;;;;;;;11.90;5.65;;;;;;;3.06;100.00;99581.19;12744542;23;20021;-81
2021/12/14 07:05:33;;;;;;;13.13;5.78;;;;;;;3.04;100.00;99593.91;12746243;23;20602;-80
2021/12/14 07:10:43;;;;;;;12.60;6.35;;;;;;;2.99;100.00;99605.22;12727924;23;20025;-81
2021/12/14 07:15:51;;;;;;;15.98;6.90;;;;;;;3.16;100.00;99623.00;12755115;23;20022;-81
2021/12/14 07:20:59;;;;;;;13.77;6.45;;;;;;;3.14;100.00;99626.69;12751015;23;20434;-81
2021/12/14 07:26:07;;;;;;;13.05;5.70;;;;;;;3.15;100.00;99630.16;12716910;23;20014;-81
2021/12/14 07:31:46;;;;;;;14.98;6.38;;;;;;;3.17;100.00;99627.25;12750785;23;20002;-82
2021/12/14 07:36:53;;;;;;;11.98;6.28;;;;;;;2.98;100.00;99600.97;12764508;23;20033;-81
2021/12/14 07:42:04;;;;;;;12.10;6.25;;;;;;;3.05;100.00;99598.97;12761024;23;20013;-80
2021/12/14 07:47:27;;;;;;;12.45;6.35;;;;;;;3.08;100.00;99617.03;12771597;23;20016;-81
2021/12/14 07:52:44;;;;;;;12.73;6.53;;;;;;;3.03;100.00;99624.13;12774906;23;20231;-82
2021/12/14 07:57:52;;;;;;;15.40;7.18;;;;;;;3.13;100.00;99630.41;12710692;23;20097;-82
2021/12/14 08:03:00;;;;;;;13.38;6.38;;;;;;;3.04;100.00;99621.22;12755303;23;20036;-81
2021/12/14 08:08:30;;;;;;;14.85;6.68;;;;;;;3.19;100.00;99618.00;12757618;23;20026;-82
2021/12/14 08:13:52;;;;;;;11.30;6.63;;;;;;;3.33;100.00;99634.41;12748647;23;20091;-82
2021/12/14 08:18:54;;;;;;;12.32;6.47;;;;;;;3.18;100.00;99610.28;12760783;23;20017;-83
2021/12/14 08:24:02;;;;;;;14.77;6.75;;;;;;;3.21;100.00;99628.41;12777079;23;20032;-84
2021/12/14 08:29:36;;;;;;;11.38;6.07;;;;;;;3.38;100.00;99647.75;12778728;23;20013;-82
2021/12/14 08:34:44;;;;;;;10.90;5.90;;;;;;;3.22;100.00;99648.56;12744679;23;20025;-80
2021/12/14 08:40:13;;;;;;;13.13;6.60;;;;;;;3.33;100.00;99643.19;12746900;23;20057;-81
2021/12/14 08:45:29;;;;;;;14.32;7.47;;;;;;;3.30;100.00;99635.72;12761965;23;20031;-82
2021/12/14 08:50:37;;;;;;;14.23;7.55;;;;;;;3.30;100.00;99624.28;12784402;23;20018;-83
2021/12/14 08:55:43;;;;;;;15.25;7.97;;;;;;;3.38;100.00;99648.56;12780624;23;20069;-82
2021/12/14 09:00:55;;;;;;;15.75;8.02;;;;;;;3.27;100.00;99633.53;12787623;23;20013;-81
2021/12/14 09:11:52;;;;;;;15.52;8.38;;;;;;;3.39;100.00;99638.75;12778213;23;20116;-82
2021/12/14 09:16:57;;;;;;;16.88;8.43;;;;;;;3.49;100.00;99646.88;12710307;23;20081;-82
2021/12/14 09:22:18;;;;;;;21.07;9.53;;;;;;;3.55;100.00;99659.16;12776155;23;20021;-81
2021/12/14 09:27:25;;;;;;;18.63;9.00;;;;;;;3.59;100.00;99635.59;12758740;23;20335;-81
2021/12/14 09:32:52;;;;;;;22.60;9.35;;;;;;;3.52;100.00;99614.53;12755537;23;20025;-82
2021/12/14 09:37:57;;;;;;;19.50;8.98;;;;;;;3.63;100.00;99632.19;12720475;23;20080;-80
2021/12/14 09:42:58;;;;;;;20.08;9.38;;;;;;;3.64;100.00;99617.88;12718872;23;20032;-81
2021/12/14 09:48:04;;;;;;;19.52;8.90;;;;;;;3.73;100.00;99594.38;12757288;23;20036;-82
2021/12/14 09:53:21;;;;;;;22.45;9.23;;;;;;;3.91;100.00;99606.56;12766828;23;20037;-80
2021/12/14 09:58:58;;;;;;;21.35;9.75;;;;;;;3.99;100.00;99606.13;12766233;23;20386;-82
2021/12/14 10:04:53;;;;;;;23.77;10.65;;;;;;;4.11;100.00;99611.31;12754736;23;20101;-81
2021/12/14 10:10:00;;;;;;;20.15;10.57;;;;;;;4.16;100.00;99624.66;12767307;23;20102;-80
2021/12/14 10:15:13;;;;;;;20.02;10.00;;;;;;;4.18;100.00;99615.38;12731190;23;20017;-82
2021/12/14 10:20:23;;;;;;;20.02;8.70;;;;;;;4.44;100.00;99621.81;12757822;23;20033;-80
2021/12/14 10:25:36;;;;;;;17.15;8.38;;;;;;;4.38;100.00;99598.06;12756403;23;20062;-80
2021/12/14 10:30:56;;;;;;;24.02;9.25;;;;;;;4.23;100.00;99609.34;12749729;23;20112;-81
2021/12/14 10:36:52;;;;;;;20.33;9.40;;;;;;;4.42;100.00;99610.63;12768744;23;20009;-81
2021/12/14 10:47:34;;;;;;;21.83;9.27;;;;;;;4.49;100.00;99618.41;12660233;23;20013;-83
2021/12/14 10:52:43;;;;;;;18.33;9.02;;;;;;;4.37;100.00;99631.00;12723548;23;20105;-82
2021/12/14 10:57:53;;;;;;;20.08;9.57;;;;;;;4.52;100.00;99645.28;12734766;23;20028;-82
2021/12/14 11:02:53;;;;;;;25.20;9.25;;;;;;;4.53;100.00;99646.09;12761934;23;20061;-81
2021/12/14 11:13:55;;;;;;;22.42;9.88;;;;;;;4.66;100.00;99615.63;12748667;23;20026;-82
2021/12/14 11:19:06;;;;;;;24.63;10.65;;;;;;;4.59;100.00;99610.53;12754899;23;20030;-80
2021/12/14 11:24:39;;;;;;;27.15;10.85;;;;;;;4.65;100.00;99603.38;12751007;23;20206;-80
2021/12/14 11:29:43;;;;;;;;;;;;;;;4.58;100.00;99577.03;12733236;23;20017;-81
2021/12/14 11:34:48;;;;;;;29.40;12.85;;;;;;;4.63;100.00;99584.22;12775947;23;19905;-82
2021/12/14 11:39:53;;;;;;;30.75;11.05;;;;;;;4.62;100.00;99579.97;12721038;23;20096;-82
2021/12/14 11:45:15;;;;;;;24.52;11.35;;;;;;;4.72;100.00;99583.53;12757387;23;20061;-82
2021/12/14 11:50:54;;;;;;;28.52;11.52;;;;;;;4.78;100.00;99593.16;12781710;23;20025;-83
2021/12/14 11:56:24;;;;;;;25.90;11.00;;;;;;;4.95;100.00;99598.38;12756482;23;20010;-82
2021/12/14 12:02:02;;;;;;;25.80;9.77;;;;;;;4.89;100.00;99601.22;12783253;23;20025;-80
2021/12/14 12:12:48;;;;;;;26.20;11.70;;;;;;;4.93;100.00;99584.50;12768289;23;20009;-82
2021/12/14 12:18:01;;;;;;;28.67;12.30;;;;;;;5.01;100.00;99567.28;12753704;23;20017;-81
2021/12/14 12:23:27;;;;;;;23.65;10.43;;;;;;;4.96;100.00;99572.56;12789050;23;20021;-81
2021/12/14 12:28:48;;;;;;;29.30;11.82;;;;;;;4.84;100.00;99559.41;12769235;23;20044;-81
2021/12/14 12:33:59;;;;;;;29.50;12.18;;;;;;;4.99;100.00;99559.53;12755448;23;20036;-80
2021/12/14 12:39:12;;;;;;;28.77;11.73;;;;;;;4.89;100.00;99577.28;12730789;23;20045;-83
2021/12/14 12:44:42;;;;;;;34.38;12.70;;;;;;;4.93;100.00;99571.19;12739162;23;20053;-83
2021/12/14 12:49:56;;;;;;;29.30;11.38;;;;;;;4.91;100.00;99567.19;12757314;23;20053;-87
2021/12/14 12:55:28;;;;;;;29.67;11.95;;;;;;;4.95;100.00;99574.44;12691673;23;20021;-82
2021/12/14 13:01:10;;;;;;;30.23;12.63;;;;;;;5.01;100.00;99562.75;12739546;23;20021;-82
2021/12/14 13:06:22;;;;;;;29.30;11.63;;;;;;;5.09;100.00;99567.59;12751554;23;20006;-84
2021/12/14 13:11:51;;;;;;;28.88;12.43;;;;;;;5.03;100.00;99563.31;12764335;23;20339;-85
2021/12/14 13:17:18;;;;;;;27.75;11.85;;;;;;;5.25;100.00;99565.84;12757078;23;20019;-82
2021/12/14 13:22:21;;;;;;;31.55;11.65;;;;;;;5.32;100.00;99561.13;12749145;23;20048;-83
2021/12/14 13:27:30;;;;;;;31.17;13.25;;;;;;;5.33;100.00;99556.59;12711152;23;20033;-80
2021/12/14 13:33:03;;;;;;;31.02;12.93;;;;;;;5.28;100.00;99567.19;12812399;23;20029;-82
2021/12/14 13:38:07;;;;;;;31.38;13.45;;;;;;;5.27;100.00;99574.38;12774529;23;20017;-82
2021/12/14 13:43:17;;;;;;;33.40;14.38;;;;;;;5.11;100.00;99567.34;12790797;23;20044;-82
2021/12/14 13:48:25;;;;;;;34.70;13.30;;;;;;;5.21;100.00;99591.41;12766304;23;20064;-83
2021/12/14 13:53:26;;;;;;;32.72;13.63;;;;;;;5.01;100.00;99586.69;12812757;23;20783;-82
2021/12/14 13:58:32;;;;;;;34.40;13.65;;;;;;;5.10;100.00;99598.47;12822961;23;20021;-82
2021/12/14 14:03:43;;;;;;;34.60;13.18;;;;;;;5.08;100.00;99605.91;12798343;23;20021;-83
2021/12/14 14:08:54;;;;;;;34.83;13.45;;;;;;;4.96;100.00;99617.78;12779786;23;20097;-81
2021/12/14 14:14:08;;;;;;;31.95;13.57;;;;;;;4.91;100.00;99612.41;12818477;23;20485;-81
2021/12/14 14:19:38;;;;;;;36.20;13.65;;;;;;;4.94;100.00;99618.06;12792159;23;20325;-81
2021/12/14 14:24:46;;;;;;;34.20;13.63;;;;;;;4.83;100.00;99621.66;12784357;23;20029;-82
2021/12/14 14:29:49;;;;;;;33.03;12.57;;;;;;;4.66;100.00;99637.69;12727947;23;20013;-83
2021/12/14 14:34:55;;;;;;;35.05;13.38;;;;;;;4.71;100.00;99635.09;12753739;23;20053;-83
2021/12/14 14:40:10;;;;;;;32.33;13.88;;;;;;;4.57;100.00;99633.88;12730184;23;20088;-81
2021/12/14 14:45:27;;;;;;;32.13;14.05;;;;;;;4.53;100.00;99646.09;12756111;23;20021;-81
2021/12/14 14:50:39;;;;;;;32.20;13.55;;;;;;;4.46;100.00;99648.94;12748714;23;20017;-82
2021/12/14 14:56:07;;;;;;;36.45;14.93;;;;;;;4.37;100.00;99653.06;12735901;23;20014;-81
2021/12/14 15:01:31;;;;;;;45.72;17.10;;;;;;;4.47;100.00;99657.72;12773664;23;20049;-82
2021/12/14 15:06:42;;;;;;;38.10;15.57;;;;;;;4.44;100.00;99667.00;12759334;23;20053;-83
2021/12/14 15:11:56;;;;;;;38.90;15.50;;;;;;;4.42;100.00;99661.13;12742544;23;20047;-81
2021/12/14 15:17:32;;;;;;;43.67;16.90;;;;;;;4.41;100.00;99664.03;12773856;23;20060;-82
2021/12/14 15:23:05;;;;;;;41.58;16.40;;;;;;;4.45;100.00;99662.47;12766718;23;20029;-83
2021/12/14 15:28:32;;;;;;;40.33;17.63;;;;;;;4.47;100.00;99671.81;12774804;23;20299;-82
2021/12/14 15:33:55;;;;;;;42.42;15.93;;;;;;;4.47;100.00;99678.97;12786032;23;20021;-84
2021/12/14 15:39:08;;;;;;;45.70;17.52;;;;;;;4.43;100.00;99668.03;12734801;23;20032;-83
2021/12/14 15:44:18;;;;;;;47.38;17.92;;;;;;;4.44;100.00;99671.50;12760473;23;20020;-85
2021/12/14 15:49:33;;;;;;;43.28;18.65;;;;;;;4.49;100.00;99671.56;12779350;23;20033;-82
2021/12/14 15:54:54;;;;;;;49.40;17.88;;;;;;;4.48;100.00;99677.91;12764648;23;20029;-82
2021/12/14 16:00:23;;;;;;;48.85;19.80;;;;;;;4.46;100.00;99688.81;12761869;23;20031;-83
2021/12/14 16:05:24;;;;;;;44.07;17.47;;;;;;;4.51;100.00;99694.19;12750256;23;20032;-80
2021/12/14 16:10:32;;;;;;;43.72;19.35;;;;;;;4.61;100.00;99690.03;12729388;23;20472;-80
2021/12/14 16:15:37;;;;;;;50.22;17.52;;;;;;;4.52;100.00;99698.47;12738535;23;20013;-84
2021/12/14 16:21:00;;;;;;;53.65;18.75;;;;;;;4.51;100.00;99702.16;12791973;23;20034;-84
2021/12/14 16:26:25;;;;;;;44.42;17.80;;;;;;;4.55;100.00;99689.19;12842555;23;20061;-82
2021/12/14 16:31:45;;;;;;;56.90;18.15;;;;;;;4.51;100.00;99701.38;12842858;23;20077;-81
2021/12/14 16:36:56;;;;;;;58.42;17.77;;;;;;;4.52;100.00;99705.63;12815857;23;20032;-83
2021/12/14 16:42:24;;;;;;;54.50;16.88;;;;;;;4.52;100.00;99695.78;12828516;23;20049;-81
2021/12/14 16:47:46;;;;;;;46.33;16.58;;;;;;;4.59;100.00;99705.44;12831870;23;20064;-82
2021/12/14 16:52:51;;;;;;;41.55;15.65;;;;;;;4.59;100.00;99719.53;12822444;23;20011;-82
2021/12/14 16:58:08;;;;;;;40.72;16.27;;;;;;;4.56;100.00;99717.38;12825512;23;20021;-82
2021/12/14 17:03:44;;;;;;;45.20;17.92;;;;;;;4.54;100.00;99722.94;12829303;23;20021;-83
2021/12/14 17:09:16;;;;;;;47.97;18.67;;;;;;;4.48;100.00;99731.91;12820721;23;20067;-81
2021/12/14 17:14:47;;;;;;;42.92;17.15;;;;;;;4.48;100.00;99744.38;12831230;23;20040;-83
2021/12/14 17:27:09;;;;;;;44.35;17.40;;;;;;;4.51;100.00;99757.19;12843468;23;20008;-82
2021/12/14 17:32:28;;;;;;;47.05;16.80;;;;;;;4.48;100.00;99758.50;12844667;23;20064;-80
2021/12/14 17:38:06;;;;;;;48.67;18.27;;;;;;;4.37;100.00;99750.63;12817869;23;20032;-84
2021/12/14 17:43:21;;;;;;;51.40;19.52;;;;;;;4.38;100.00;99746.91;12830799;23;20349;-82
2021/12/14 17:49:39;;;;;;;53.88;19.80;;;;;;;4.35;100.00;99748.22;12845099;23;20013;-83
2021/12/14 17:55:47;;;;;;;48.95;20.85;;;;;;;4.29;100.00;99755.31;12850103;23;20017;-82
2021/12/14 18:01:20;;;;;;;37.57;17.37;;;;;;;4.27;100.00;99756.59;12842192;23;20025;-82
2021/12/14 18:06:32;;;;;;;45.78;16.52;;;;;;;4.26;100.00;99752.34;12814878;23;20105;-81
2021/12/14 18:11:42;;;;;;;43.15;17.48;;;;;;;4.16;100.00;99758.31;12774270;23;20837;-82
2021/12/14 18:17:04;;;;;;;39.35;16.95;;;;;;;4.19;100.00;99773.78;12803990;23;20041;-86
2021/12/14 18:22:25;;;;;;;71.22;26.25;;;;;;;4.11;100.00;99770.72;12831271;23;20044;-82
2021/12/14 18:28:10;;;;;;;49.17;20.23;;;;;;;4.12;100.00;99767.03;12823170;23;20017;-84
2021/12/14 18:34:10;;;;;;;48.05;19.95;;;;;;;4.12;100.00;99751.91;12821434;23;20025;-81
2021/12/14 18:39:45;;;;;;;46.47;18.88;;;;;;;4.07;100.00;99757.13;12748146;23;20071;-84
2021/12/14 18:45:22;;;;;;;36.97;17.93;;;;;;;4.14;100.00;99762.28;12816300;23;20025;-83
2021/12/14 18:51:11;;;;;;;44.28;18.98;;;;;;;4.13;100.00;99766.78;12799159;23;20247;-82
2021/12/14 18:56:46;;;;;;;41.38;18.77;;;;;;;4.09;100.00;99768.31;12827385;23;20171;-82
2021/12/14 19:02:02;;;;;;;45.22;18.95;;;;;;;4.08;100.00;99777.34;12770114;23;20108;-84
2021/12/14 19:08:18;;;;;;;51.13;19.02;;;;;;;4.10;100.00;99787.72;12815406;23;20021;-83
2021/12/14 19:13:31;;;;;;;40.15;17.48;;;;;;;4.06;100.00;99792.72;12816807;23;20025;-82
2021/12/14 19:18:39;;;;;;;52.13;22.58;;;;;;;4.20;100.00;99796.63;12755054;23;20092;-82
2021/12/14 19:24:25;;;;;;;48.90;19.45;;;;;;;4.10;100.00;99801.78;12821113;23;20031;-83
2021/12/14 19:29:47;;;;;;;47.25;19.98;;;;;;;4.03;100.00;99803.84;12818224;23;20028;-82
2021/12/14 19:35:31;;;;;;;49.53;20.80;;;;;;;4.15;100.00;99804.53;12828369;23;20020;-82
2021/12/14 19:40:42;;;;;;;46.17;21.40;;;;;;;4.37;100.00;99806.44;12790402;23;20027;-81
2021/12/14 19:45:45;;;;;;;44.78;19.98;;;;;;;4.33;100.00;99815.97;12828705;23;20017;-82
2021/12/14 19:50:52;;;;;;;48.22;20.77;;;;;;;4.36;100.00;99808.28;12768560;23;20292;-81
2021/12/14 19:56:20;;;;;;;44.08;18.60;;;;;;;4.29;100.00;99808.47;12768493;23;20017;-82
2021/12/14 20:01:48;;;;;;;42.10;18.77;;;;;;;4.19;100.00;99800.34;12851877;23;20013;-84
2021/12/14 20:07:15;;;;;;;42.50;18.85;;;;;;;4.27;100.00;99807.91;12768137;23;20029;-83
2021/12/14 20:12:55;;;;;;;36.75;16.10;;;;;;;4.26;100.00;99814.28;12816583;23;20017;-85
2021/12/14 20:18:13;;;;;;;41.90;17.23;;;;;;;4.29;100.00;99816.44;12781399;23;20028;-84
2021/12/14 20:24:01;;;;;;;39.00;16.00;;;;;;;4.16;100.00;99814.13;12848373;23;20028;-83
2021/12/14 20:29:16;;;;;;;42.47;16.58;;;;;;;4.07;100.00;99815.56;12799173;23;20036;-84
2021/12/14 20:35:11;;;;;;;41.05;17.40;;;;;;;4.09;100.00;99826.75;12829872;23;20021;-85
2021/12/14 20:40:19;;;;;;;41.13;16.67;;;;;;;4.13;100.00;99830.56;12793974;23;20020;-85
2021/12/14 20:45:55;;;;;;;38.63;16.60;;;;;;;4.08;100.00;99825.16;12796456;23;20043;-83
2021/12/14 20:51:39;;;;;;;41.70;15.93;;;;;;;4.12;100.00;99826.28;12756944;23;20029;-85
2021/12/14 20:56:44;;;;;;;32.17;14.85;;;;;;;4.15;100.00;99823.16;12689924;23;20088;-87
2021/12/14 21:02:19;;;;;;;35.63;16.38;;;;;;;4.13;100.00;99829.75;12753753;23;20087;-85
2021/12/14 21:07:29;;;;;;;42.60;17.30;;;;;;;3.98;100.00;99828.47;12687985;23;20113;-83
2021/12/14 21:13:04;;;;;;;41.33;16.88;;;;;;;4.03;100.00;99833.06;12727609;23;20022;-83
2021/12/14 21:18:14;;;;;;;44.45;17.98;;;;;;;3.97;100.00;99832.16;12742485;23;20102;-81
2021/12/14 21:23:22;;;;;;;43.38;16.58;;;;;;;4.02;100.00;99836.75;12698575;23;20195;-83
2021/12/14 21:28:49;;;;;;;44.30;17.65;;;;;;;3.92;100.00;99832.06;12762462;23;20025;-84
2021/12/14 21:34:04;;;;;;;43.53;18.95;;;;;;;3.92;100.00;99833.91;12769146;23;20095;-83
2021/12/14 21:45:50;;;;;;;43.28;17.85;;;;;;;3.88;100.00;99843.44;12829592;23;20039;-85
2021/12/14 21:50:57;;;;;;;44.63;18.30;;;;;;;3.84;100.00;99851.09;12839654;23;20064;-86
2021/12/14 21:56:00;;;;;;;42.72;17.65;;;;;;;3.88;100.00;99857.50;12808339;23;20013;-82
2021/12/14 22:01:23;;;;;;;37.80;16.77;;;;;;;3.95;100.00;99854.72;12819655;23;20016;-82
2021/12/14 22:06:42;;;;;;;41.90;17.00;;;;;;;3.98;100.00;99854.22;12792394;23;20009;-84
2021/12/14 22:11:48;;;;;;;46.85;18.50;;;;;;;4.02;100.00;99852.69;12847505;23;20064;-85
2021/12/14 22:17:29;;;;;;;45.40;17.50;;;;;;;4.04;100.00;99863.88;12768738;23;20029;-83
2021/12/14 22:22:42;;;;;;;39.53;17.02;;;;;;;3.99;100.00;99861.94;12817565;23;20021;-85
2021/12/14 22:28:16;;;;;;;45.13;19.15;;;;;;;4.09;100.00;99874.59;12797400;23;20291;-84
2021/12/14 22:33:18;;;;;;;41.72;18.10;;;;;;;4.09;100.00;99871.13;12735884;23;20025;-85
2021/12/14 22:38:20;;;;;;;;;;;;;;;4.18;100.00;99875.00;12828915;23;20069;-83
2021/12/14 22:49:04;;;;;;;39.20;17.45;;;;;;;4.11;100.00;99880.47;12821469;23;20025;-82
2021/12/14 22:54:13;;;;;;;39.22;16.88;;;;;;;4.23;100.00;99881.19;12821607;23;20025;-81
2021/12/14 22:59:18;;;;;;;39.15;15.68;;;;;;;4.20;100.00;99880.88;12809965;23;20024;-81
2021/12/14 23:04:28;;;;;;;41.72;18.33;;;;;;;4.14;100.00;99898.59;12805400;23;20017;-83
2021/12/14 23:09:41;;;;;;;38.80;16.70;;;;;;;4.18;100.00;99898.91;12836821;23;20115;-85
2021/12/14 23:14:47;;;;;;;37.35;17.17;;;;;;;4.27;100.00;99890.28;12778779;23;20021;-81
2021/12/14 23:19:59;;;;;;;43.47;16.27;;;;;;;4.24;100.00;99895.28;12801765;23;20021;-81
2021/12/14 23:25:05;;;;;;;42.13;17.00;;;;;;;4.17;100.00;99905.28;12847263;23;20020;-82
2021/12/14 23:30:15;;;;;;;41.70;17.83;;;;;;;4.03;100.00;99896.00;12843636;23;20024;-80
2021/12/14 23:35:20;;;;;;;43.60;16.85;;;;;;;4.11;100.00;99901.72;12788817;23;20061;-81
2021/12/14 23:40:25;;;;;;;45.13;17.77;;;;;;;4.07;100.00;99903.25;12782085;23;20757;-81
2021/12/14 23:45:36;;;;;;;38.22;16.02;;;;;;;4.08;100.00;99910.16;12774320;23;20032;-79
2021/12/14 23:50:48;;;;;;;40.53;15.60;;;;;;;4.13;100.00;99906.81;12797155;23;20005;-81
2021/12/14 23:55:52;;;;;;;37.33;15.30;;;;;;;4.07;100.00;99903.25;12778432;23;20032;-80
